Time;durP1;ratioP1;P1;durP2;ratioP2;P2;SDS_P1;SDS_P2;PMS_P1;PMS_P2;Temp;Humidity;BMP_temperature;BMP_pressure;BME280_temperature;BME280_humidity;BME280_pressure;Samples;Min_cycle;Max_cycle;Signal;HPM_P1;HPM_P2
2022/09/18 00:01:33;;;;;;;21.82;11.00;;;;;;;;;;1747595;81;21123;-66
2022/09/18 00:04:01;;;;;;;21.75;11.15;;;;;;;;;;1747353;82;21074;-68
2022/09/18 00:06:28;;;;;;;19.75;8.95;;;;;;;;;;1747407;81;21105;-67
2022/09/18 00:08:56;;;;;;;19.42;9.25;;;;;;;;;;1747083;81;21053;-66
2022/09/18 00:11:23;;;;;;;13.78;8.80;;;;;;;;;;1747462;81;21022;-67
2022/09/18 00:13:51;;;;;;;13.00;8.48;;;;;;;;;;1747613;81;21601;-68
2022/09/18 00:16:18;;;;;;;15.20;8.40;;;;;;;;;;1747326;82;21006;-66
2022/09/18 00:18:44;;;;;;;14.53;8.00;;;;;;;;;;1747587;81;21019;-67
2022/09/18 00:21:11;;;;;;;10.82;7.58;;;;;;;;;;1747518;82;21520;-67
2022/09/18 00:23:38;;;;;;;10.60;7.12;;;;;;;;;;1747434;82;21166;-67
2022/09/18 00:26:05;;;;;;;11.20;6.75;;;;;;;;;;1747636;81;21086;-67
2022/09/18 00:28:31;;;;;;;11.38;6.85;;;;;;;;;;1747374;81;21514;-67
2022/09/18 00:31:03;;;;;;;10.45;6.58;;;;;;;;;;1743692;82;21084;-67
2022/09/18 00:33:29;;;;;;;12.65;7.00;;;;;;;;;;1746749;81;21030;-67
2022/09/18 00:35:57;;;;;;;9.28;6.17;;;;;;;;;;1747467;81;21003;-67
2022/09/18 00:38:24;;;;;;;9.78;5.53;;;;;;;;;;1747427;81;21010;-66
2022/09/18 00:40:50;;;;;;;8.45;5.72;;;;;;;;;;1747275;82;21058;-67
2022/09/18 00:43:20;;;;;;;11.85;6.12;;;;;;;;;;1747585;82;21015;-67
2022/09/18 00:48:05;;;;;;;16.45;7.45;;;;;;;;;;1805379;79;23017;-66
2022/09/18 00:50:31;;;;;;;11.78;6.83;;;;;;;;;;1761739;81;21023;-66
2022/09/18 00:53:00;;;;;;;9.88;6.95;;;;;;;;;;1761049;81;21053;-66
2022/09/18 00:55:29;;;;;;;10.60;7.53;;;;;;;;;;1761309;81;21029;-66
2022/09/18 00:57:56;;;;;;;9.95;6.45;;;;;;;;;;1761012;80;21076;-66
2022/09/18 01:00:22;;;;;;;11.22;7.42;;;;;;;;;;1762877;81;20998;-67
2022/09/18 01:05:48;;;;;;;12.13;7.62;;;;;;;;;;1748414;81;21187;-72
2022/09/18 01:08:19;;;;;;;11.60;7.47;;;;;;;;;;1726204;82;21066;-71
2022/09/18 01:10:47;;;;;;;12.60;8.68;;;;;;;;;;1729910;82;21506;-71
2022/09/18 01:13:16;;;;;;;13.75;8.50;;;;;;;;;;1726850;82;21077;-71
2022/09/18 01:15:51;;;;;;;13.20;7.30;;;;;;;;;;1730859;82;21571;-72
2022/09/18 01:18:19;;;;;;;13.78;7.37;;;;;;;;;;1748726;82;21026;-71
2022/09/18 01:20:53;;;;;;;12.05;7.58;;;;;;;;;;1754619;82;21026;-72
2022/09/18 01:23:24;;;;;;;12.13;8.18;;;;;;;;;;1748930;82;21058;-71
2022/09/18 01:25:52;;;;;;;10.98;7.58;;;;;;;;;;1751415;82;21050;-71
2022/09/18 01:28:23;;;;;;;11.83;7.65;;;;;;;;;;1754451;82;21066;-72
2022/09/18 01:30:51;;;;;;;12.68;7.47;;;;;;;;;;1751329;82;21015;-72
2022/09/18 01:33:36;;;;;;;11.00;7.65;;;;;;;;;;1750467;82;21042;-71
2022/09/18 01:36:03;;;;;;;9.05;6.70;;;;;;;;;;1751694;82;21477;-72
2022/09/18 01:38:31;;;;;;;9.23;6.70;;;;;;;;;;1756280;82;21014;-71
2022/09/18 01:40:59;;;;;;;11.03;7.10;;;;;;;;;;1750156;82;21066;-71
2022/09/18 01:43:27;;;;;;;10.70;6.35;;;;;;;;;;1751799;82;21047;-72
2022/09/18 01:45:53;;;;;;;13.08;7.10;;;;;;;;;;1754318;82;22079;-71
2022/09/18 01:48:26;;;;;;;9.73;7.00;;;;;;;;;;1728940;82;21051;-72
2022/09/18 01:50:55;;;;;;;11.78;7.15;;;;;;;;;;1727144;82;21090;-73
2022/09/18 01:53:23;;;;;;;11.60;7.45;;;;;;;;;;1728534;82;21498;-72
2022/09/18 01:55:51;;;;;;;14.85;8.80;;;;;;;;;;1730351;82;21003;-73
2022/09/18 01:58:20;;;;;;;19.52;10.13;;;;;;;;;;1736266;82;21011;-72
2022/09/18 02:00:49;;;;;;;14.60;9.15;;;;;;;;;;1726684;82;21074;-72
2022/09/18 02:03:17;;;;;;;14.45;8.40;;;;;;;;;;1714509;83;21065;-72
2022/09/18 02:05:45;;;;;;;17.20;8.68;;;;;;;;;;1679173;83;21122;-71
2022/09/18 02:08:14;;;;;;;12.37;6.90;;;;;;;;;;1672402;85;21046;-72
2022/09/18 02:10:44;;;;;;;10.00;6.20;;;;;;;;;;1677486;85;21054;-71
2022/09/18 02:13:12;;;;;;;13.78;6.12;;;;;;;;;;1673395;85;21026;-71
2022/09/18 02:15:38;;;;;;;9.53;5.50;;;;;;;;;;1678331;85;20999;-71
2022/09/18 02:18:10;;;;;;;6.87;4.72;;;;;;;;;;1677860;85;21051;-71
2022/09/18 02:20:38;;;;;;;5.90;4.37;;;;;;;;;;1679321;85;21609;-71
2022/09/18 02:23:05;;;;;;;5.53;3.92;;;;;;;;;;1656532;85;21058;-71
2022/09/18 02:25:33;;;;;;;6.35;4.65;;;;;;;;;;1677849;85;21031;-71
2022/09/18 02:28:00;;;;;;;7.08;4.87;;;;;;;;;;1694960;84;21060;-71
2022/09/18 02:30:26;;;;;;;5.55;4.25;;;;;;;;;;1692564;84;21088;-71
2022/09/18 02:32:54;;;;;;;5.15;3.98;;;;;;;;;;1658860;86;21517;-71
2022/09/18 02:35:22;;;;;;;5.67;4.53;;;;;;;;;;1662179;86;21080;-71
2022/09/18 02:37:51;;;;;;;5.10;4.05;;;;;;;;;;1673723;85;21521;-71
2022/09/18 02:40:19;;;;;;;6.90;4.40;;;;;;;;;;1675816;85;21034;-71
2022/09/18 02:42:53;;;;;;;6.45;4.35;;;;;;;;;;1661255;85;21002;-71
2022/09/18 02:45:25;;;;;;;6.40;4.70;;;;;;;;;;1674407;85;21098;-71
2022/09/18 02:47:55;;;;;;;6.55;4.95;;;;;;;;;;1660583;86;21049;-70
2022/09/18 02:50:27;;;;;;;5.78;4.37;;;;;;;;;;1660259;86;21108;-71
2022/09/18 02:52:58;;;;;;;5.70;4.42;;;;;;;;;;1656958;86;21112;-71
2022/09/18 02:55:25;;;;;;;7.33;5.05;;;;;;;;;;1662107;86;21046;-71
2022/09/18 02:57:53;;;;;;;8.35;4.75;;;;;;;;;;1675583;85;21529;-71
2022/09/18 03:00:19;;;;;;;6.62;4.83;;;;;;;;;;1641252;85;21054;-71
2022/09/18 03:02:51;;;;;;;7.72;5.47;;;;;;;;;;1645624;86;21090;-71
2022/09/18 03:05:19;;;;;;;6.42;4.80;;;;;;;;;;1650097;86;21073;-71
2022/09/18 03:07:47;;;;;;;6.17;4.47;;;;;;;;;;1653468;86;21064;-71
2022/09/18 03:10:13;;;;;;;6.83;4.70;;;;;;;;;;1650390;86;21102;-71
2022/09/18 03:12:40;;;;;;;8.55;5.55;;;;;;;;;;1667446;86;21032;-72
2022/09/18 03:15:08;;;;;;;8.13;5.20;;;;;;;;;;1667942;86;21522;-71
2022/09/18 03:17:34;;;;;;;6.85;4.83;;;;;;;;;;1717812;82;21498;-71
2022/09/18 03:20:02;;;;;;;8.35;4.95;;;;;;;;;;1712621;82;21519;-71
2022/09/18 03:22:29;;;;;;;6.75;4.75;;;;;;;;;;1713449;82;21037;-71
2022/09/18 03:24:55;;;;;;;9.28;5.30;;;;;;;;;;1715844;83;21047;-71
2022/09/18 03:27:21;;;;;;;6.30;4.60;;;;;;;;;;1713099;83;21873;-70
2022/09/18 03:29:48;;;;;;;6.28;4.50;;;;;;;;;;1711613;82;21061;-71
2022/09/18 03:32:16;;;;;;;5.87;4.20;;;;;;;;;;1713645;82;21011;-71
2022/09/18 03:34:48;;;;;;;6.80;4.50;;;;;;;;;;1713620;82;21056;-71
2022/09/18 03:37:15;;;;;;;6.05;4.60;;;;;;;;;;1711931;83;21058;-71
2022/09/18 03:39:42;;;;;;;6.30;4.40;;;;;;;;;;1714478;82;21053;-71
2022/09/18 03:42:10;;;;;;;6.70;5.10;;;;;;;;;;1708936;82;21047;-70
2022/09/18 03:44:37;;;;;;;7.05;4.47;;;;;;;;;;1713863;83;21043;-72
2022/09/18 03:47:08;;;;;;;5.75;4.25;;;;;;;;;;1715358;82;21566;-72
2022/09/18 03:49:34;;;;;;;5.75;4.10;;;;;;;;;;1710491;83;21023;-72
2022/09/18 03:52:04;;;;;;;6.35;3.87;;;;;;;;;;1712300;82;21054;-73
2022/09/18 03:54:32;;;;;;;5.83;4.10;;;;;;;;;;1714758;82;21029;-73
2022/09/18 03:57:00;;;;;;;5.50;4.00;;;;;;;;;;1706481;82;21104;-71
2022/09/18 03:59:32;;;;;;;7.03;4.58;;;;;;;;;;1702915;83;21053;-72
2022/09/18 04:02:15;;;;;;;6.47;4.28;;;;;;;;;;1710498;83;21530;-72
2022/09/18 04:04:53;;;;;;;6.72;4.53;;;;;;;;;;1699415;83;21058;-71
2022/09/18 04:07:21;;;;;;;5.47;4.10;;;;;;;;;;1713504;82;21587;-71
2022/09/18 04:10:07;;;;;;;6.92;4.05;;;;;;;;;;1716171;82;21046;-71
2022/09/18 04:12:35;;;;;;;5.67;4.10;;;;;;;;;;1650574;86;21029;-72
2022/09/18 04:15:07;;;;;;;6.12;4.35;;;;;;;;;;1712359;82;21029;-72
2022/09/18 04:17:35;;;;;;;4.62;3.62;;;;;;;;;;1681613;84;21039;-72
2022/09/18 04:20:02;;;;;;;5.30;4.03;;;;;;;;;;1680808;85;21529;-72
2022/09/18 04:22:31;;;;;;;5.22;3.70;;;;;;;;;;1681981;85;21058;-71
2022/09/18 04:24:57;;;;;;;5.35;3.52;;;;;;;;;;1682918;85;21062;-72
2022/09/18 04:27:23;;;;;;;4.42;3.35;;;;;;;;;;1666594;85;21082;-72
2022/09/18 04:29:50;;;;;;;4.97;3.80;;;;;;;;;;1682731;85;21526;-72
2022/09/18 04:32:17;;;;;;;4.12;3.37;;;;;;;;;;1683247;85;21065;-72
2022/09/18 04:34:43;;;;;;;5.10;3.60;;;;;;;;;;1681089;85;21065;-72
2022/09/18 04:37:10;;;;;;;5.60;3.75;;;;;;;;;;1646976;87;21582;-72
2022/09/18 04:39:36;;;;;;;4.62;3.42;;;;;;;;;;1647197;86;21113;-71
2022/09/18 04:42:03;;;;;;;3.85;3.10;;;;;;;;;;1675281;85;21083;-72
2022/09/18 04:44:29;;;;;;;4.97;3.60;;;;;;;;;;1677019;85;21637;-72
2022/09/18 04:46:56;;;;;;;3.55;2.87;;;;;;;;;;1678755;85;21034;-72
2022/09/18 04:49:22;;;;;;;4.08;3.17;;;;;;;;;;1678034;85;20999;-73
2022/09/18 04:51:48;;;;;;;3.47;2.92;;;;;;;;;;1678767;85;21097;-73
2022/09/18 04:54:15;;;;;;;3.37;2.92;;;;;;;;;;1679007;85;21051;-73
2022/09/18 04:56:42;;;;;;;3.70;2.75;;;;;;;;;;1649989;85;21097;-72
2022/09/18 04:59:08;;;;;;;4.00;2.70;;;;;;;;;;1681730;85;21023;-73
2022/09/18 05:01:37;;;;;;;4.90;2.87;;;;;;;;;;1675624;85;21106;-73
2022/09/18 05:04:05;;;;;;;4.30;2.98;;;;;;;;;;1674121;85;21022;-73
2022/09/18 05:06:41;;;;;;;3.92;3.10;;;;;;;;;;1675909;84;21019;-73
2022/09/18 05:09:07;;;;;;;4.03;3.00;;;;;;;;;;1678219;85;21071;-74
2022/09/18 05:11:33;;;;;;;4.50;3.33;;;;;;;;;;1674336;85;21098;-73
2022/09/18 05:14:00;;;;;;;3.85;2.90;;;;;;;;;;1682828;85;21035;-73
2022/09/18 05:16:28;;;;;;;4.87;3.40;;;;;;;;;;1682917;85;21089;-74
2022/09/18 05:19:05;;;;;;;6.17;3.85;;;;;;;;;;1605942;88;21016;-73
2022/09/18 05:21:32;;;;;;;5.78;3.98;;;;;;;;;;1654238;86;21082;-74
2022/09/18 05:23:58;;;;;;;5.17;4.17;;;;;;;;;;1650367;86;21525;-73
2022/09/18 05:26:25;;;;;;;5.17;4.20;;;;;;;;;;1668230;86;21059;-74
2022/09/18 05:28:54;;;;;;;6.30;4.78;;;;;;;;;;1672335;86;21079;-73
2022/09/18 05:31:21;;;;;;;6.90;4.70;;;;;;;;;;1639522;86;21109;-73
2022/09/18 05:33:47;;;;;;;7.67;4.40;;;;;;;;;;1664148;86;21034;-73
2022/09/18 05:36:14;;;;;;;5.87;4.25;;;;;;;;;;1664200;86;21581;-74
2022/09/18 05:38:40;;;;;;;8.73;4.42;;;;;;;;;;1664610;86;21102;-73
2022/09/18 05:41:07;;;;;;;5.53;4.08;;;;;;;;;;1721754;83;21066;-73
2022/09/18 05:43:34;;;;;;;6.03;3.85;;;;;;;;;;1719385;83;21574;-71
2022/09/18 05:46:01;;;;;;;5.55;3.65;;;;;;;;;;1713594;83;21011;-72
2022/09/18 05:48:29;;;;;;;6.20;3.25;;;;;;;;;;1645305;86;21109;-72
2022/09/18 05:50:56;;;;;;;5.05;3.50;;;;;;;;;;1648668;87;21065;-73
2022/09/18 05:53:23;;;;;;;4.50;2.95;;;;;;;;;;1675115;85;21574;-73
2022/09/18 05:56:01;;;;;;;5.10;3.72;;;;;;;;;;1661847;85;21014;-72
2022/09/18 05:58:29;;;;;;;5.35;3.40;;;;;;;;;;1666981;86;21586;-74
2022/09/18 06:00:56;;;;;;;4.15;3.17;;;;;;;;;;1664362;86;21059;-70
2022/09/18 06:03:23;;;;;;;4.92;3.37;;;;;;;;;;1712838;82;21041;-71
2022/09/18 06:05:53;;;;;;;5.05;3.33;;;;;;;;;;1716355;82;21048;-71
2022/09/18 06:08:19;;;;;;;5.80;3.67;;;;;;;;;;1721757;83;21096;-71
2022/09/18 06:10:46;;;;;;;4.30;2.98;;;;;;;;;;1692491;85;21104;-71
2022/09/18 06:13:14;;;;;;;4.95;3.35;;;;;;;;;;1658800;86;21014;-72
2022/09/18 06:15:44;;;;;;;6.00;3.55;;;;;;;;;;1665683;86;21037;-72
2022/09/18 06:18:13;;;;;;;6.15;3.55;;;;;;;;;;1687418;85;21102;-71
2022/09/18 06:20:41;;;;;;;5.40;4.12;;;;;;;;;;1689830;85;22285;-71
2022/09/18 06:23:07;;;;;;;5.00;3.80;;;;;;;;;;1687424;85;21030;-72
2022/09/18 06:25:35;;;;;;;4.83;3.75;;;;;;;;;;1683292;85;21066;-72
2022/09/18 06:28:02;;;;;;;4.83;3.62;;;;;;;;;;1681446;85;21049;-72
2022/09/18 06:30:30;;;;;;;5.53;3.40;;;;;;;;;;1690181;85;21058;-72
2022/09/18 06:33:04;;;;;;;4.90;3.67;;;;;;;;;;1685643;85;21037;-72
2022/09/18 06:35:33;;;;;;;5.12;3.62;;;;;;;;;;1684065;85;21113;-73
2022/09/18 06:38:02;;;;;;;3.62;2.90;;;;;;;;;;1685719;85;21037;-71
2022/09/18 06:40:31;;;;;;;4.83;3.62;;;;;;;;;;1687139;85;21062;-73
2022/09/18 06:43:13;;;;;;;5.42;3.87;;;;;;;;;;1685826;85;21057;-72
2022/09/18 06:45:51;;;;;;;4.90;3.30;;;;;;;;;;1684914;85;21053;-73
2022/09/18 06:48:18;;;;;;;4.55;3.33;;;;;;;;;;1681841;85;21521;-73
2022/09/18 06:50:46;;;;;;;5.25;3.58;;;;;;;;;;1682999;85;21048;-72
2022/09/18 06:53:13;;;;;;;4.50;3.30;;;;;;;;;;1682604;85;21038;-73
2022/09/18 06:55:41;;;;;;;4.92;3.65;;;;;;;;;;1688484;85;21046;-72
2022/09/18 06:58:07;;;;;;;5.50;3.75;;;;;;;;;;1667626;85;21601;-72
2022/09/18 07:00:34;;;;;;;4.58;3.20;;;;;;;;;;1669037;85;21088;-73
2022/09/18 07:03:01;;;;;;;5.87;3.60;;;;;;;;;;1681151;85;21063;-72
2022/09/18 07:05:37;;;;;;;4.72;3.37;;;;;;;;;;1661140;84;21042;-72
2022/09/18 07:08:04;;;;;;;5.33;3.30;;;;;;;;;;1654274;86;21498;-72
2022/09/18 07:10:32;;;;;;;4.12;2.98;;;;;;;;;;1665021;84;21054;-71
2022/09/18 07:12:59;;;;;;;5.03;3.62;;;;;;;;;;1660402;86;21049;-72
2022/09/18 07:15:25;;;;;;;3.75;3.00;;;;;;;;;;1718292;82;21098;-72
2022/09/18 07:17:53;;;;;;;5.50;3.95;;;;;;;;;;1715313;83;21025;-72
2022/09/18 07:20:20;;;;;;;4.78;3.40;;;;;;;;;;1711814;82;21056;-72
2022/09/18 07:22:54;;;;;;;5.53;3.75;;;;;;;;;;1716216;82;21045;-72
2022/09/18 07:25:20;;;;;;;6.45;4.58;;;;;;;;;;1710515;82;21504;-72
2022/09/18 07:27:47;;;;;;;4.92;3.50;;;;;;;;;;1708849;83;22112;-71
2022/09/18 07:30:14;;;;;;;5.72;3.95;;;;;;;;;;1713284;84;21018;-72
2022/09/18 07:32:42;;;;;;;3.52;2.90;;;;;;;;;;1714551;83;21048;-72
2022/09/18 07:35:10;;;;;;;4.50;3.20;;;;;;;;;;1714363;82;21058;-73
2022/09/18 07:37:37;;;;;;;4.80;3.42;;;;;;;;;;1715374;82;21089;-72
2022/09/18 07:40:07;;;;;;;4.40;3.10;;;;;;;;;;1716327;82;21100;-72
2022/09/18 07:42:52;;;;;;;5.47;3.17;;;;;;;;;;1713256;82;21026;-73
2022/09/18 07:45:19;;;;;;;4.22;3.02;;;;;;;;;;1682392;85;21011;-73
2022/09/18 07:47:45;;;;;;;4.20;2.95;;;;;;;;;;1682351;85;21522;-73
2022/09/18 07:50:14;;;;;;;3.95;2.65;;;;;;;;;;1682752;85;21129;-72
2022/09/18 07:52:41;;;;;;;4.95;3.05;;;;;;;;;;1684313;85;21025;-73
2022/09/18 07:55:09;;;;;;;4.50;3.10;;;;;;;;;;1682729;85;21058;-72
2022/09/18 07:57:36;;;;;;;3.52;2.58;;;;;;;;;;1682827;85;21069;-72
2022/09/18 08:00:14;;;;;;;4.67;3.20;;;;;;;;;;1681079;85;21105;-72
2022/09/18 08:02:42;;;;;;;4.03;2.58;;;;;;;;;;1674951;85;21048;-72
2022/09/18 08:05:11;;;;;;;4.78;3.40;;;;;;;;;;1682939;85;21514;-72
2022/09/18 08:07:39;;;;;;;4.78;3.25;;;;;;;;;;1650979;86;21098;-73
2022/09/18 08:10:09;;;;;;;4.10;2.67;;;;;;;;;;1677753;84;21070;-72
2022/09/18 08:12:37;;;;;;;4.70;2.90;;;;;;;;;;1653540;86;21625;-72
2022/09/18 08:15:22;;;;;;;3.72;2.67;;;;;;;;;;1702114;84;21049;-72
2022/09/18 08:17:59;;;;;;;3.72;2.90;;;;;;;;;;1700491;84;21063;-71
2022/09/18 08:20:31;;;;;;;5.17;3.30;;;;;;;;;;1699566;84;21034;-72
2022/09/18 08:23:00;;;;;;;5.37;3.50;;;;;;;;;;1683051;84;21021;-71
2022/09/18 08:25:27;;;;;;;4.90;3.67;;;;;;;;;;1700771;84;21051;-71
2022/09/18 08:27:53;;;;;;;4.22;3.25;;;;;;;;;;1701813;84;21118;-72
2022/09/18 08:30:26;;;;;;;;;;;;;;;;;;1701538;84;21059;-72
2022/09/18 08:32:59;;;;;;;5.45;3.22;;;;;;;;;;1710745;84;20105;-71
2022/09/18 08:35:26;;;;;;;3.50;2.50;;;;;;;;;;1703586;84;21017;-71
2022/09/18 08:37:54;;;;;;;3.92;2.70;;;;;;;;;;1706623;84;21052;-72
2022/09/18 08:40:24;;;;;;;5.22;2.83;;;;;;;;;;1676268;84;21029;-72
2022/09/18 08:43:09;;;;;;;4.03;2.65;;;;;;;;;;1658668;85;21036;-73
2022/09/18 08:45:47;;;;;;;3.52;2.35;;;;;;;;;;1719231;83;21083;-71
2022/09/18 08:48:18;;;;;;;4.50;2.87;;;;;;;;;;1717025;83;21090;-72
2022/09/18 08:50:48;;;;;;;3.27;2.45;;;;;;;;;;1689353;84;21025;-72
2022/09/18 08:53:16;;;;;;;2.85;2.17;;;;;;;;;;1690893;84;21059;-73
2022/09/18 08:56:01;;;;;;;2.47;1.98;;;;;;;;;;1686835;84;21055;-72
2022/09/18 08:58:48;;;;;;;2.70;2.27;;;;;;;;;;1689236;84;21050;-73
2022/09/18 09:01:17;;;;;;;3.72;2.60;;;;;;;;;;1690179;84;21054;-73
2022/09/18 09:03:50;;;;;;;6.33;2.50;;;;;;;;;;1686024;84;21076;-74
2022/09/18 09:06:19;;;;;;;3.17;2.40;;;;;;;;;;1657898;86;21017;-73
2022/09/18 09:08:56;;;;;;;2.50;2.00;;;;;;;;;;1695802;84;21049;-73
2022/09/18 09:11:28;;;;;;;3.25;2.30;;;;;;;;;;1692385;84;21202;-73
2022/09/18 09:13:59;;;;;;;2.15;1.90;;;;;;;;;;1695828;84;21030;-74
2022/09/18 09:16:31;;;;;;;2.87;2.20;;;;;;;;;;1694831;84;21053;-73
2022/09/18 09:19:08;;;;;;;2.62;2.10;;;;;;;;;;1681030;84;21203;-73
2022/09/18 09:21:37;;;;;;;3.10;2.33;;;;;;;;;;1680783;84;21012;-72
2022/09/18 09:24:20;;;;;;;3.58;2.60;;;;;;;;;;1682553;84;21043;-72
2022/09/18 09:27:16;;;;;;;3.45;2.60;;;;;;;;;;1721594;83;21012;-73
2022/09/18 09:30:03;;;;;;;4.05;2.50;;;;;;;;;;1722295;83;21477;-73
2022/09/18 09:32:36;;;;;;;3.60;2.70;;;;;;;;;;1672607;83;21040;-72
2022/09/18 09:35:15;;;;;;;3.50;2.60;;;;;;;;;;1704436;83;21056;-72
2022/09/18 09:37:44;;;;;;;3.45;2.55;;;;;;;;;;1712412;83;21534;-72
2022/09/18 09:40:13;;;;;;;3.45;2.47;;;;;;;;;;1722356;83;21012;-73
2022/09/18 09:42:45;;;;;;;3.40;2.62;;;;;;;;;;1723494;83;21065;-71
2022/09/18 09:45:13;;;;;;;3.77;2.90;;;;;;;;;;1664822;86;21559;-72
2022/09/18 09:47:42;;;;;;;3.83;3.10;;;;;;;;;;1692084;84;21060;-72
2022/09/18 09:50:26;;;;;;;4.92;3.83;;;;;;;;;;1695236;84;21026;-72
2022/09/18 09:52:53;;;;;;;4.50;3.60;;;;;;;;;;1694864;84;21533;-73
2022/09/18 09:55:21;;;;;;;4.40;3.35;;;;;;;;;;1691663;84;21081;-72
2022/09/18 09:57:52;;;;;;;5.47;3.58;;;;;;;;;;1693982;84;21033;-72
2022/09/18 10:00:19;;;;;;;4.70;3.58;;;;;;;;;;1679021;84;21048;-73
2022/09/18 10:03:05;;;;;;;4.92;3.55;;;;;;;;;;1665561;84;21069;-73
2022/09/18 10:05:35;;;;;;;6.42;4.55;;;;;;;;;;1694498;84;21585;-72
2022/09/18 10:08:03;;;;;;;5.90;4.28;;;;;;;;;;1684847;84;21078;-72
2022/09/18 10:10:35;;;;;;;6.95;4.85;;;;;;;;;;1690040;83;21482;-73
2022/09/18 10:13:05;;;;;;;5.72;4.30;;;;;;;;;;1689768;83;21035;-72
2022/09/18 10:15:36;;;;;;;9.05;4.70;;;;;;;;;;1691317;83;21031;-72
2022/09/18 10:18:05;;;;;;;5.85;4.20;;;;;;;;;;1690737;83;21634;-73
2022/09/18 10:20:31;;;;;;;7.05;3.92;;;;;;;;;;1686579;83;21507;-72
2022/09/18 10:23:00;;;;;;;6.25;3.80;;;;;;;;;;1687125;83;21031;-72
2022/09/18 10:25:40;;;;;;;5.10;3.70;;;;;;;;;;1685232;83;21072;-73
2022/09/18 10:28:07;;;;;;;5.60;4.08;;;;;;;;;;1681902;83;21044;-72
2022/09/18 10:30:34;;;;;;;5.20;3.80;;;;;;;;;;1686437;83;21031;-72
2022/09/18 10:33:01;;;;;;;6.05;4.03;;;;;;;;;;1639910;86;21556;-73
2022/09/18 10:35:31;;;;;;;6.25;4.08;;;;;;;;;;1645870;86;21041;-73
2022/09/18 10:37:58;;;;;;;5.90;4.22;;;;;;;;;;1699389;83;21034;-73
2022/09/18 10:40:30;;;;;;;6.12;4.15;;;;;;;;;;1705379;83;21561;-73
2022/09/18 10:42:58;;;;;;;5.60;4.03;;;;;;;;;;1694467;83;21537;-74
2022/09/18 10:45:29;;;;;;;6.53;4.17;;;;;;;;;;1696880;84;21062;-73
2022/09/18 10:48:05;;;;;;;6.53;4.43;;;;;;;;;;1664804;85;21056;-74
2022/09/18 10:50:32;;;;;;;7.67;4.20;;;;;;;;;;1619883;86;21049;-73
2022/09/18 10:53:03;;;;;;;6.05;4.00;;;;;;;;;;1687578;83;21031;-73
2022/09/18 10:55:30;;;;;;;5.20;3.83;;;;;;;;;;1667711;85;21060;-73
2022/09/18 10:58:00;;;;;;;9.15;4.17;;;;;;;;;;1678026;83;21577;-74
2022/09/18 11:00:31;;;;;;;8.70;4.87;;;;;;;;;;1706540;83;21054;-73
2022/09/18 11:03:06;;;;;;;6.50;4.40;;;;;;;;;;1698142;83;21091;-73
2022/09/18 11:05:35;;;;;;;5.05;3.92;;;;;;;;;;1710736;83;21038;-73
2022/09/18 11:08:05;;;;;;;5.58;4.22;;;;;;;;;;1717860;83;21081;-73
2022/09/18 11:10:32;;;;;;;5.97;4.10;;;;;;;;;;1714905;83;21057;-73
2022/09/18 11:12:59;;;;;;;6.80;4.53;;;;;;;;;;1715079;83;21033;-73
2022/09/18 11:15:29;;;;;;;6.25;4.12;;;;;;;;;;1660491;86;21084;-73
2022/09/18 11:17:57;;;;;;;5.92;4.30;;;;;;;;;;1722275;83;21050;-74
2022/09/18 11:20:28;;;;;;;7.42;4.67;;;;;;;;;;1713188;83;21053;-74
2022/09/18 11:23:13;;;;;;;6.65;4.90;;;;;;;;;;1721179;83;21020;-73
2022/09/18 11:25:40;;;;;;;6.62;4.70;;;;;;;;;;1725762;82;22124;-74
2022/09/18 11:28:29;;;;;;;7.08;5.00;;;;;;;;;;1715145;83;21047;-74
2022/09/18 11:31:01;;;;;;;7.40;4.95;;;;;;;;;;1718031;83;21575;-74
2022/09/18 11:33:30;;;;;;;6.97;4.55;;;;;;;;;;1717230;83;22066;-74
2022/09/18 11:36:05;;;;;;;5.95;4.28;;;;;;;;;;1718515;83;21093;-74
2022/09/18 11:38:31;;;;;;;;;;;;;;;;;;1693499;84;21014;-73
2022/09/18 11:40:57;;;;;;;6.70;4.00;;;;;;;;;;1654842;86;20137;-73
2022/09/18 11:43:25;;;;;;;6.00;4.10;;;;;;;;;;1714977;83;21532;-73
2022/09/18 11:45:54;;;;;;;6.75;4.80;;;;;;;;;;1714727;83;21021;-74
2022/09/18 11:48:29;;;;;;;9.70;5.87;;;;;;;;;;1719080;83;21026;-73
2022/09/18 11:50:58;;;;;;;7.78;4.92;;;;;;;;;;1721782;83;21117;-73
2022/09/18 11:53:25;;;;;;;7.30;5.10;;;;;;;;;;1661247;85;21058;-73
2022/09/18 11:56:02;;;;;;;24.63;13.75;;;;;;;;;;1720682;83;21290;-73
2022/09/18 11:58:31;;;;;;;12.58;7.50;;;;;;;;;;1721082;83;21085;-73
2022/09/18 12:00:59;;;;;;;11.20;7.50;;;;;;;;;;1688668;84;21030;-74
2022/09/18 12:03:30;;;;;;;7.67;4.90;;;;;;;;;;1686591;84;21098;-74
2022/09/18 12:05:59;;;;;;;8.38;4.85;;;;;;;;;;1692669;84;21057;-74
2022/09/18 12:08:46;;;;;;;6.05;4.22;;;;;;;;;;1690459;84;21026;-73
2022/09/18 12:11:33;;;;;;;5.40;3.98;;;;;;;;;;1723018;82;21054;-74
2022/09/18 12:14:19;;;;;;;5.47;4.17;;;;;;;;;;1721494;83;21533;-74
2022/09/18 12:16:52;;;;;;;7.05;4.45;;;;;;;;;;1727536;83;21323;-74
2022/09/18 12:19:30;;;;;;;6.80;4.80;;;;;;;;;;1721105;82;21046;-74
2022/09/18 12:22:10;;;;;;;5.45;4.35;;;;;;;;;;1722134;82;21533;-73
2022/09/18 12:24:36;;;;;;;5.65;3.98;;;;;;;;;;1730255;83;21041;-75
2022/09/18 12:27:04;;;;;;;7.85;5.85;;;;;;;;;;1724156;83;21085;-76
2022/09/18 12:29:32;;;;;;;6.45;4.83;;;;;;;;;;1724495;82;21049;-76
2022/09/18 12:32:16;;;;;;;5.28;3.85;;;;;;;;;;1720045;83;21031;-76
2022/09/18 12:34:50;;;;;;;4.60;3.62;;;;;;;;;;1721679;83;21093;-78
2022/09/18 12:37:18;;;;;;;6.10;3.55;;;;;;;;;;1725798;83;21040;-77
2022/09/18 12:39:48;;;;;;;5.10;3.55;;;;;;;;;;1729256;82;21042;-77
2022/09/18 12:42:19;;;;;;;5.00;4.00;;;;;;;;;;1726099;83;21116;-78
2022/09/18 12:44:50;;;;;;;5.95;4.03;;;;;;;;;;1718228;83;21018;-77
2022/09/18 12:47:24;;;;;;;5.58;4.42;;;;;;;;;;1724317;82;21459;-77
2022/09/18 12:50:05;;;;;;;6.95;4.58;;;;;;;;;;1726174;83;21555;-78
2022/09/18 12:52:48;;;;;;;4.50;3.70;;;;;;;;;;1730194;82;21058;-78
2022/09/18 12:55:16;;;;;;;4.20;3.70;;;;;;;;;;1715398;83;21093;-78
2022/09/18 12:57:44;;;;;;;5.20;4.45;;;;;;;;;;1720938;83;21088;-78
2022/09/18 13:00:13;;;;;;;6.30;5.00;;;;;;;;;;1727200;83;21579;-78
2022/09/18 13:05:06;;;;;;;7.45;4.90;;;;;;;;;;1805259;78;22950;-74
2022/09/18 13:07:37;;;;;;;6.90;4.75;;;;;;;;;;1774370;80;20996;-73
2022/09/18 13:10:22;;;;;;;5.28;4.00;;;;;;;;;;1786506;79;21050;-74
2022/09/18 13:12:50;;;;;;;6.83;5.28;;;;;;;;;;1782405;79;20976;-74
2022/09/18 13:15:20;;;;;;;6.33;5.03;;;;;;;;;;1794694;79;21055;-74
2022/09/18 13:17:51;;;;;;;6.47;5.30;;;;;;;;;;1799065;79;21026;-74
2022/09/18 13:20:24;;;;;;;5.35;4.28;;;;;;;;;;1781501;79;21008;-74
2022/09/18 13:22:50;;;;;;;7.47;5.10;;;;;;;;;;1786380;79;21089;-73
2022/09/18 13:25:19;;;;;;;5.47;4.37;;;;;;;;;;1785536;79;21002;-74
2022/09/18 13:27:44;;;;;;;6.22;4.30;;;;;;;;;;1786125;79;21052;-72
2022/09/18 13:30:16;;;;;;;7.67;5.20;;;;;;;;;;1790751;79;21531;-73
2022/09/18 13:32:42;;;;;;;4.05;3.40;;;;;;;;;;1797734;79;21014;-72
2022/09/18 13:35:13;;;;;;;3.08;2.02;;;;;;;;;;1796343;79;21492;-72
2022/09/18 13:37:39;;;;;;;2.70;1.60;;;;;;;;;;1793960;79;21518;-72
2022/09/18 13:40:07;;;;;;;1.70;1.60;;;;;;;;;;1783796;79;21468;-72
2022/09/18 13:42:37;;;;;;;4.45;1.60;;;;;;;;;;1718618;83;21087;-72
2022/09/18 13:45:08;;;;;;;1.40;1.30;;;;;;;;;;1699871;83;21057;-72
2022/09/18 13:47:35;;;;;;;2.05;1.40;;;;;;;;;;1723130;82;22236;-73
2022/09/18 13:50:04;;;;;;;1.50;1.40;;;;;;;;;;1727193;82;21066;-72
2022/09/18 13:52:34;;;;;;;1.77;1.30;;;;;;;;;;1725643;82;21032;-72
2022/09/18 13:55:02;;;;;;;3.30;1.30;;;;;;;;;;1720948;82;21041;-72
2022/09/18 13:57:29;;;;;;;2.08;1.50;;;;;;;;;;1731996;82;21005;-72
2022/09/18 13:59:57;;;;;;;1.52;1.40;;;;;;;;;;1717588;82;21038;-72
2022/09/18 14:02:30;;;;;;;2.00;1.55;;;;;;;;;;1716808;82;21565;-72
2022/09/18 14:04:57;;;;;;;1.98;1.70;;;;;;;;;;1716240;82;21083;-72
2022/09/18 14:07:25;;;;;;;1.80;1.65;;;;;;;;;;1787112;79;20997;-75
2022/09/18 14:09:53;;;;;;;1.60;1.50;;;;;;;;;;1788235;79;21116;-72
2022/09/18 14:12:19;;;;;;;1.80;1.60;;;;;;;;;;1781259;79;21001;-72
2022/09/18 14:14:56;;;;;;;1.80;1.70;;;;;;;;;;1785474;79;21038;-72
2022/09/18 14:17:22;;;;;;;2.15;1.55;;;;;;;;;;1760454;79;21027;-74
2022/09/18 14:19:49;;;;;;;2.42;1.70;;;;;;;;;;1785280;79;20950;-74
2022/09/18 14:22:21;;;;;;;2.10;1.50;;;;;;;;;;1756597;79;21033;-73
2022/09/18 14:24:49;;;;;;;4.05;1.70;;;;;;;;;;1787584;79;20949;-72
2022/09/18 14:27:29;;;;;;;1.85;1.70;;;;;;;;;;1787767;79;21061;-74
2022/09/18 14:29:57;;;;;;;2.58;1.65;;;;;;;;;;1769712;79;21008;-74
2022/09/18 14:32:23;;;;;;;1.50;1.40;;;;;;;;;;1781328;79;21473;-72
2022/09/18 14:34:49;;;;;;;3.27;1.87;;;;;;;;;;1770421;79;20962;-75
2022/09/18 14:37:25;;;;;;;2.27;1.80;;;;;;;;;;1763912;79;21005;-75
2022/09/18 14:39:54;;;;;;;3.30;2.00;;;;;;;;;;1775351;79;21555;-74
2022/09/18 14:42:30;;;;;;;2.42;1.90;;;;;;;;;;1784570;79;20999;-74
2022/09/18 14:45:07;;;;;;;3.83;2.22;;;;;;;;;;1779306;79;21001;-74
2022/09/18 14:47:34;;;;;;;4.10;2.45;;;;;;;;;;1774801;79;21060;-75
2022/09/18 14:50:00;;;;;;;3.47;1.98;;;;;;;;;;1766819;79;21040;-75
2022/09/18 14:52:27;;;;;;;3.70;2.37;;;;;;;;;;1760244;79;21020;-73
2022/09/18 14:54:55;;;;;;;2.25;1.85;;;;;;;;;;1773447;79;22118;-74
2022/09/18 14:57:22;;;;;;;2.55;2.00;;;;;;;;;;1776955;79;20985;-75
2022/09/18 14:59:49;;;;;;;4.55;2.42;;;;;;;;;;1769010;79;21016;-76
2022/09/18 15:02:34;;;;;;;2.45;2.00;;;;;;;;;;1773210;79;21050;-76
2022/09/18 15:05:02;;;;;;;3.37;1.90;;;;;;;;;;1751426;79;21547;-76